Terminal Aerodrome Forecast
Issued by NWS Chicago, IL

Home | Current Version | Previous Version | Text Only | Print | Product List | Glossary Off
Versions: 1 2 3 4 5 6 7 8 9 10 11 12 13 14 15 16 17 18 19 20 21 22 23 24 25 26 27 28 29 30 31 32 33 34 35 36

000
FTUS43 KLOT 240200 AAC
TAFRFD
TAF AMD
KRFD 240248Z 2403/2424 19004KT P6SM BKN020 OVC030
     FM240500 VRB03KT 6SM BR OVC018
     FM241000 VRB02KT 2SM BR OVC008
     FM241500 21006KT P6SM OVC015
     FM241800 21008KT P6SM SCT025 SCT250=

USA.gov is the U.S. government's official web portal to all federal, state and local government web resources and services.